createdAt,value
2019-01-26T00:08:46.452Z,54
2019-01-26T00:24:03.760Z,57.7
2019-01-26T00:39:14.399Z,59.6
2019-01-26T00:54:25.130Z,60
2019-01-26T01:09:35.889Z,58.1
2019-01-26T01:24:46.638Z,55.9
2019-01-26T01:39:57.353Z,58
2019-01-26T01:55:07.754Z,62.2
2019-01-26T02:10:21.136Z,64.1
2019-01-26T02:25:28.753Z,63.9
2019-01-26T02:40:39.396Z,64.2
2019-01-26T02:55:51.865Z,64.8
2019-01-26T03:11:00.988Z,66.9
2019-01-26T03:26:04.102Z,71.8
2019-01-26T03:41:21.816Z,76
2019-01-26T03:56:32.596Z,78.8
2019-01-26T04:11:43.392Z,80.4
2019-01-26T04:26:54.156Z,81.3
2019-01-26T04:42:05.141Z,82.7
2019-01-26T04:57:15.958Z,84
2019-01-26T05:12:26.831Z,86.6
2019-01-26T05:27:37.799Z,85.7
2019-01-26T05:42:45.879Z,85.4
2019-01-26T05:58:00.129Z,86.4
2019-01-26T06:13:11.354Z,84
2019-01-26T06:28:22.549Z,84.7
2019-01-26T06:43:25.534Z,82.7
2019-01-26T06:58:44.994Z,81.8
2019-01-26T07:13:56.248Z,81.8
2019-01-26T07:29:07.773Z,81.6
2019-01-26T07:44:18.985Z,81.9
2019-01-26T07:59:30.468Z,82.2
2019-01-26T08:14:41.893Z,85.2
2019-01-26T08:29:53.430Z,86.8
2019-01-26T08:45:04.728Z,87.6
2019-01-26T09:00:10.832Z,87.4
2019-01-26T09:15:27.897Z,86.5
2019-01-26T09:30:39.471Z,87
2019-01-26T09:45:51.022Z,87.7
2019-01-26T10:01:02.465Z,86.5
2019-01-26T10:16:14.103Z,86
2019-01-26T10:31:25.781Z,86.1
2019-01-26T10:46:37.313Z,86.3
2019-01-26T11:01:48.987Z,86.3
2019-01-26T11:16:58.781Z,86.8
2019-01-26T11:32:12.684Z,88.1
2019-01-26T11:47:24.281Z,87.1
2019-01-26T12:02:36.208Z,86
2019-01-26T12:17:40.757Z,86.2
2019-01-26T12:33:00.229Z,85.8
2019-01-26T12:48:12.242Z,86.5
2019-01-26T13:03:24.243Z,87.1
2019-01-26T13:18:36.354Z,86.8
2019-01-26T13:33:48.433Z,87.3
2019-01-26T13:49:00.564Z,84.7
2019-01-26T14:04:12.769Z,85.2
2019-01-26T14:19:24.886Z,85.5
2019-01-26T14:34:32.174Z,86.2
2019-01-26T14:49:49.309Z,87.3
2019-01-26T15:05:01.339Z,87.4
2019-01-26T15:20:13.431Z,89.5
2019-01-26T15:35:25.723Z,89.8
2019-01-26T15:50:38.533Z,90.1
2019-01-26T16:05:50.188Z,89.8
2019-01-26T16:21:02.183Z,91.1
2019-01-26T16:36:15.275Z,91
2019-01-26T16:51:23.679Z,92.7
2019-01-26T17:06:38.942Z,92.9
2019-01-26T17:21:50.974Z,93.5
2019-01-26T17:37:03.361Z,93.7
2019-01-26T17:52:06.399Z,93.7
2019-01-26T18:07:27.699Z,93.6
2019-01-26T18:22:39.914Z,92.7
2019-01-26T18:37:52.125Z,92.8
2019-01-26T18:53:04.411Z,89.9
2019-01-26T19:08:15.318Z,89.2
2019-01-26T19:23:28.906Z,89.2
2019-01-26T19:38:41.144Z,88.8
2019-01-26T19:53:53.376Z,88.8
2019-01-26T20:08:58.412Z,87.8
2019-01-26T20:24:17.894Z,87
2019-01-26T20:39:30.191Z,86.8
2019-01-26T20:54:44.372Z,86.2
2019-01-26T21:09:55.039Z,84.6
2019-01-26T21:25:07.326Z,83.2
2019-01-26T21:40:19.894Z,82.3
2019-01-26T21:55:32.108Z,81.3
2019-01-26T22:10:44.540Z,85
2019-01-26T22:25:52.024Z,78.3
2019-01-26T22:41:10.171Z,78.3
2019-01-26T22:56:22.722Z,77.8
2019-01-26T23:11:35.190Z,78
2019-01-26T23:26:47.849Z,79
2019-01-26T23:42:00.212Z,76.2
2019-01-26T23:57:12.444Z,74.2
